Cheramie Botruc No 39 — WDB9134 — position and weather

sailwx.info

Track history (hours):
 
Tides and Currents Weather Stations Pressure Air Temp Water Temp Dewpoint Dewpoint Depression Visibility Wind Speed Wind Dir Waves Ship Positions

Cheramie Botruc No 39

Owner: L & M BOTRUC, GALLIANO, LA. More information available from US FCC via Universal Licensing System and Coast Guard Vessel Documentation Center.

Last reported at 2017-Dec-21 02:27 UTC. Time now 2018-Jan-21 20:28 UTC.
Position N 29°06' W 092°13'.
Warning: this ship's position is 31 days out of date.

Length 58 m; draft 3.6 m.

Type: Ship (hazmat cat C). MMSI: 366970330.

Date/timePositionNaut miles runAvg speedWind from/ knotsBaromVisibWave heightAir tempDewpointWater temp
2017-Dec-21 02:27N 29°06' W 092°13'510.3
2017-Dec-21 02:00N 29°08' W 092°18'510.3
2017-Dec-21 01:30N 29°10' W 092°23'510.4
2017-Dec-21 01:00N 29°12' W 092°29'510.4
2017-Dec-21 00:31N 29°15' W 092°34'510.4
2017-Dec-21 00:01N 29°17' W 092°39'510.5
2017-Dec-20 23:30N 29°20' W 092°44'510.3
2017-Dec-20 23:00N 29°23' W 092°49'510.3
2017-Dec-20 22:30N 29°26' W 092°54'510.2
2017-Dec-20 22:01N 29°29' W 092°59'510.3
2017-Dec-20 21:31N 29°32' W 093°03'22 9.4
2017-Dec-20 19:10N 29°48' W 093°21'2 5.0
2017-Dec-20 18:50N 29°49' W 093°20'0 0.0
2017-Dec-20 18:29N 29°49' W 093°20'0 0.0
2017-Dec-20 17:41N 29°49' W 093°20'0 0.1
2017-Dec-20 17:28N 29°49' W 093°20'2 0.3
2017-Dec-20 10:18N 29°47' W 093°20'1 2.4
2017-Dec-20 10:00N 29°47' W 093°21'2 3.8
2017-Dec-20 09:28N 29°49' W 093°21'1 0.3
2017-Dec-20 07:22N 29°49' W 093°20'  
2017-Dec-18 02:08N 29°48' W 093°21'1 5.0
2017-Dec-18 02:01N 29°49' W 093°21'1 0.1
2017-Dec-17 18:24N 29°49' W 093°20'3 0.6
2017-Dec-17 13:43N 29°47' W 093°21'2 5.3
2017-Dec-17 13:18N 29°49' W 093°21'0 0.0
2017-Dec-17 12:48N 29°49' W 093°21'0 0.0
2017-Dec-17 12:30N 29°49' W 093°21'0 0.0
2017-Dec-17 11:00N 29°49' W 093°21'0 0.0
2017-Dec-17 10:27N 29°49' W 093°21'0 0.0
2017-Dec-17 09:48N 29°49' W 093°21'0 0.0
2017-Dec-17 09:30N 29°49' W 093°21'0 0.0
2017-Dec-17 08:57N 29°49' W 093°21'0 0.0
2017-Dec-17 08:30N 29°49' W 093°21'1 0.1
2017-Dec-17 02:48N 29°49' W 093°20'  
2017-Dec-13 20:10N 28°13' W 093°05'3 9.4
2017-Dec-13 19:51N 28°13' W 093°02'4 9.6
2017-Dec-13 19:26N 28°12' W 092°57'4 9.9
2017-Dec-13 19:00N 28°11' W 092°52'  
Track history (hours):
 
Tides and Currents Weather Stations Pressure Air Temp Water Temp Dewpoint Dewpoint Depression Visibility Wind Speed Wind Dir Waves Ship Positions

Cheramie Botruc No 39

Owner: L & M BOTRUC, GALLIANO, LA. More information available from US FCC via Universal Licensing System and Coast Guard Vessel Documentation Center.

Last reported at 2017-Dec-21 02:27 UTC. Time now 2018-Jan-21 20:28 UTC.
Position N 29°06' W 092°13'.
Warning: this ship's position is 31 days out of date.

Length 58 m; draft 3.6 m.

Type: Ship (hazmat cat C). MMSI: 366970330.

Date/timePositionNaut miles runAvg speedWind from/ knotsBaromVisibWave heightAir tempDewpointWater temp
2017-Dec-21 02:27N 29°06' W 092°13'510.3
2017-Dec-21 02:00N 29°08' W 092°18'510.3
2017-Dec-21 01:30N 29°10' W 092°23'510.4
2017-Dec-21 01:00N 29°12' W 092°29'510.4
2017-Dec-21 00:31N 29°15' W 092°34'510.4
2017-Dec-21 00:01N 29°17' W 092°39'510.5
2017-Dec-20 23:30N 29°20' W 092°44'510.3
2017-Dec-20 23:00N 29°23' W 092°49'510.3
2017-Dec-20 22:30N 29°26' W 092°54'510.2
2017-Dec-20 22:01N 29°29' W 092°59'510.3
2017-Dec-20 21:31N 29°32' W 093°03'22 9.4
2017-Dec-20 19:10N 29°48' W 093°21'2 5.0
2017-Dec-20 18:50N 29°49' W 093°20'0 0.0
2017-Dec-20 18:29N 29°49' W 093°20'0 0.0
2017-Dec-20 17:41N 29°49' W 093°20'0 0.1
2017-Dec-20 17:28N 29°49' W 093°20'2 0.3
2017-Dec-20 10:18N 29°47' W 093°20'1 2.4
2017-Dec-20 10:00N 29°47' W 093°21'2 3.8
2017-Dec-20 09:28N 29°49' W 093°21'1 0.3
2017-Dec-20 07:22N 29°49' W 093°20'  
2017-Dec-18 02:08N 29°48' W 093°21'1 5.0
2017-Dec-18 02:01N 29°49' W 093°21'1 0.1
2017-Dec-17 18:24N 29°49' W 093°20'3 0.6
2017-Dec-17 13:43N 29°47' W 093°21'2 5.3
2017-Dec-17 13:18N 29°49' W 093°21'0 0.0
2017-Dec-17 12:48N 29°49' W 093°21'0 0.0
2017-Dec-17 12:30N 29°49' W 093°21'0 0.0
2017-Dec-17 11:00N 29°49' W 093°21'0 0.0
2017-Dec-17 10:27N 29°49' W 093°21'0 0.0
2017-Dec-17 09:48N 29°49' W 093°21'0 0.0
2017-Dec-17 09:30N 29°49' W 093°21'0 0.0
2017-Dec-17 08:57N 29°49' W 093°21'0 0.0
2017-Dec-17 08:30N 29°49' W 093°21'1 0.1
2017-Dec-17 02:48N 29°49' W 093°20'  
2017-Dec-13 20:10N 28°13' W 093°05'3 9.4
2017-Dec-13 19:51N 28°13' W 093°02'4 9.6
2017-Dec-13 19:26N 28°12' W 092°57'4 9.9
2017-Dec-13 19:00N 28°11' W 092°52'  

Dump ship's entire track history